sensor_id;sensor_type;location;lat;lon;timestamp;temperature;humidity
5960;DHT22;3006;50.956;7.002;2022-11-15T00:00:01;10.90;99.90
5960;DHT22;3006;50.956;7.002;2022-11-15T00:02:48;10.90;99.90
5960;DHT22;3006;50.956;7.002;2022-11-15T00:05:34;11.00;99.90
5960;DHT22;3006;50.956;7.002;2022-11-15T00:08:21;11.00;99.90
5960;DHT22;3006;50.956;7.002;2022-11-15T00:11:11;11.00;99.90
5960;DHT22;3006;50.956;7.002;2022-11-15T00:13:58;11.00;99.90
5960;DHT22;3006;50.956;7.002;2022-11-15T00:16:47;11.10;99.90
5960;DHT22;3006;50.956;7.002;2022-11-15T00:19:33;11.10;99.90
5960;DHT22;3006;50.956;7.002;2022-11-15T00:22:20;11.10;99.90
5960;DHT22;3006;50.956;7.002;2022-11-15T00:25:07;11.10;99.90
5960;DHT22;3006;50.956;7.002;2022-11-15T00:27:56;11.20;99.90
5960;DHT22;3006;50.956;7.002;2022-11-15T00:30:43;11.20;99.90
5960;DHT22;3006;50.956;7.002;2022-11-15T00:33:30;11.20;99.90
5960;DHT22;3006;50.956;7.002;2022-11-15T00:36:17;11.30;99.90
5960;DHT22;3006;50.956;7.002;2022-11-15T00:39:05;11.30;99.90
5960;DHT22;3006;50.956;7.002;2022-11-15T00:41:52;11.40;99.90
5960;DHT22;3006;50.956;7.002;2022-11-15T00:44:39;11.40;99.90
5960;DHT22;3006;50.956;7.002;2022-11-15T00:47:26;11.50;99.90
5960;DHT22;3006;50.956;7.002;2022-11-15T00:50:13;11.50;99.90
5960;DHT22;3006;50.956;7.002;2022-11-15T00:52:59;11.50;99.90
5960;DHT22;3006;50.956;7.002;2022-11-15T00:55:46;11.50;99.90
5960;DHT22;3006;50.956;7.002;2022-11-15T00:58:33;11.50;99.90
5960;DHT22;3006;50.956;7.002;2022-11-15T01:01:21;11.60;99.90
5960;DHT22;3006;50.956;7.002;2022-11-15T01:04:07;11.60;99.90
5960;DHT22;3006;50.956;7.002;2022-11-15T01:06:54;11.60;99.90
5960;DHT22;3006;50.956;7.002;2022-11-15T01:09:41;11.60;99.90
5960;DHT22;3006;50.956;7.002;2022-11-15T01:12:27;11.60;99.90
5960;DHT22;3006;50.956;7.002;2022-11-15T01:15:14;11.70;99.90
5960;DHT22;3006;50.956;7.002;2022-11-15T01:18:03;11.70;99.90
5960;DHT22;3006;50.956;7.002;2022-11-15T01:20:49;11.70;99.90
5960;DHT22;3006;50.956;7.002;2022-11-15T01:23:36;11.70;99.90
5960;DHT22;3006;50.956;7.002;2022-11-15T01:26:23;11.70;99.90
5960;DHT22;3006;50.956;7.002;2022-11-15T01:29:11;11.70;99.90
5960;DHT22;3006;50.956;7.002;2022-11-15T01:31:57;11.70;99.90
5960;DHT22;3006;50.956;7.002;2022-11-15T01:34:45;11.80;99.90
5960;DHT22;3006;50.956;7.002;2022-11-15T01:37:31;11.80;99.90
5960;DHT22;3006;50.956;7.002;2022-11-15T01:40:18;11.80;99.90
5960;DHT22;3006;50.956;7.002;2022-11-15T01:43:25;11.80;99.90
5960;DHT22;3006;50.956;7.002;2022-11-15T01:46:22;11.80;99.90
5960;DHT22;3006;50.956;7.002;2022-11-15T01:49:12;11.80;99.90
5960;DHT22;3006;50.956;7.002;2022-11-15T01:52:05;11.70;99.90
5960;DHT22;3006;50.956;7.002;2022-11-15T01:54:56;11.80;99.90
5960;DHT22;3006;50.956;7.002;2022-11-15T01:57:47;11.80;99.90
5960;DHT22;3006;50.956;7.002;2022-11-15T02:00:35;11.80;99.90
5960;DHT22;3006;50.956;7.002;2022-11-15T02:03:25;11.80;99.90
5960;DHT22;3006;50.956;7.002;2022-11-15T02:06:13;11.80;99.90
5960;DHT22;3006;50.956;7.002;2022-11-15T02:09:01;11.80;99.90
5960;DHT22;3006;50.956;7.002;2022-11-15T02:11:49;11.80;99.90
5960;DHT22;3006;50.956;7.002;2022-11-15T02:14:38;11.80;99.90
5960;DHT22;3006;50.956;7.002;2022-11-15T02:17:41;11.90;99.90
5960;DHT22;3006;50.956;7.002;2022-11-15T02:20:39;11.90;99.90
5960;DHT22;3006;50.956;7.002;2022-11-15T02:27:13;11.90;99.90
5960;DHT22;3006;50.956;7.002;2022-11-15T02:30:19;12.00;99.90
5960;DHT22;3006;50.956;7.002;2022-11-15T02:33:13;12.00;99.90
5960;DHT22;3006;50.956;7.002;2022-11-15T02:36:08;11.90;99.90
5960;DHT22;3006;50.956;7.002;2022-11-15T02:38:59;11.90;99.90
5960;DHT22;3006;50.956;7.002;2022-11-15T02:41:53;12.00;99.90
5960;DHT22;3006;50.956;7.002;2022-11-15T02:44:44;12.00;99.90
5960;DHT22;3006;50.956;7.002;2022-11-15T02:47:35;12.00;99.90
5960;DHT22;3006;50.956;7.002;2022-11-15T02:50:26;12.00;99.90
5960;DHT22;3006;50.956;7.002;2022-11-15T02:53:14;11.90;99.90
5960;DHT22;3006;50.956;7.002;2022-11-15T02:56:01;11.90;99.90
5960;DHT22;3006;50.956;7.002;2022-11-15T02:59:10;12.00;99.90
5960;DHT22;3006;50.956;7.002;2022-11-15T03:02:12;12.00;99.90
5960;DHT22;3006;50.956;7.002;2022-11-15T03:05:09;12.00;99.90
5960;DHT22;3006;50.956;7.002;2022-11-15T03:08:06;12.00;99.90
5960;DHT22;3006;50.956;7.002;2022-11-15T03:11:00;12.00;99.90
5960;DHT22;3006;50.956;7.002;2022-11-15T03:13:54;12.10;99.90
5960;DHT22;3006;50.956;7.002;2022-11-15T03:16:46;12.10;99.90
5960;DHT22;3006;50.956;7.002;2022-11-15T03:19:38;12.20;99.90
5960;DHT22;3006;50.956;7.002;2022-11-15T03:22:30;12.20;99.90
5960;DHT22;3006;50.956;7.002;2022-11-15T03:25:22;12.30;99.90
5960;DHT22;3006;50.956;7.002;2022-11-15T03:28:11;12.30;99.90
5960;DHT22;3006;50.956;7.002;2022-11-15T03:31:00;12.30;99.90
5960;DHT22;3006;50.956;7.002;2022-11-15T03:34:10;12.30;99.90
5960;DHT22;3006;50.956;7.002;2022-11-15T03:36:59;12.40;99.90
5960;DHT22;3006;50.956;7.002;2022-11-15T03:39:48;12.40;99.90
5960;DHT22;3006;50.956;7.002;2022-11-15T03:42:38;12.40;99.90
5960;DHT22;3006;50.956;7.002;2022-11-15T03:45:28;12.50;99.90
5960;DHT22;3006;50.956;7.002;2022-11-15T03:48:20;12.50;99.90
5960;DHT22;3006;50.956;7.002;2022-11-15T03:51:08;12.50;99.90
5960;DHT22;3006;50.956;7.002;2022-11-15T03:53:55;12.50;99.90
5960;DHT22;3006;50.956;7.002;2022-11-15T03:56:43;12.50;99.90
5960;DHT22;3006;50.956;7.002;2022-11-15T03:59:29;12.50;99.90
5960;DHT22;3006;50.956;7.002;2022-11-15T04:02:16;12.50;99.90
5960;DHT22;3006;50.956;7.002;2022-11-15T04:05:03;12.50;99.90
5960;DHT22;3006;50.956;7.002;2022-11-15T04:07:50;12.50;99.90
5960;DHT22;3006;50.956;7.002;2022-11-15T04:10:37;12.40;99.90
5960;DHT22;3006;50.956;7.002;2022-11-15T04:13:25;12.50;99.90
5960;DHT22;3006;50.956;7.002;2022-11-15T04:16:11;12.50;99.90
5960;DHT22;3006;50.956;7.002;2022-11-15T04:18:58;12.50;99.90
5960;DHT22;3006;50.956;7.002;2022-11-15T04:22:02;12.60;99.90
5960;DHT22;3006;50.956;7.002;2022-11-15T04:25:06;12.60;99.90
5960;DHT22;3006;50.956;7.002;2022-11-15T04:27:52;12.60;99.90
5960;DHT22;3006;50.956;7.002;2022-11-15T04:30:40;12.60;99.90
5960;DHT22;3006;50.956;7.002;2022-11-15T04:33:27;12.60;99.90
5960;DHT22;3006;50.956;7.002;2022-11-15T04:36:14;12.60;99.90
5960;DHT22;3006;50.956;7.002;2022-11-15T04:39:19;12.60;99.90
5960;DHT22;3006;50.956;7.002;2022-11-15T04:42:05;12.60;99.90
5960;DHT22;3006;50.956;7.002;2022-11-15T04:44:52;12.60;99.90
5960;DHT22;3006;50.956;7.002;2022-11-15T04:47:39;12.60;99.90
5960;DHT22;3006;50.956;7.002;2022-11-15T04:50:26;12.70;99.90
5960;DHT22;3006;50.956;7.002;2022-11-15T04:53:13;12.60;99.90
5960;DHT22;3006;50.956;7.002;2022-11-15T04:55:59;12.70;99.90
5960;DHT22;3006;50.956;7.002;2022-11-15T04:58:48;12.60;99.90
5960;DHT22;3006;50.956;7.002;2022-11-15T05:01:35;12.70;99.90
5960;DHT22;3006;50.956;7.002;2022-11-15T05:04:30;12.70;99.90
5960;DHT22;3006;50.956;7.002;2022-11-15T05:07:17;12.70;99.90
5960;DHT22;3006;50.956;7.002;2022-11-15T05:10:04;12.60;99.90
5960;DHT22;3006;50.956;7.002;2022-11-15T05:12:50;12.70;99.90
5960;DHT22;3006;50.956;7.002;2022-11-15T05:15:37;12.70;99.90
5960;DHT22;3006;50.956;7.002;2022-11-15T05:18:24;12.70;99.90
5960;DHT22;3006;50.956;7.002;2022-11-15T05:21:13;12.70;99.90
5960;DHT22;3006;50.956;7.002;2022-11-15T05:24:01;12.70;99.90
5960;DHT22;3006;50.956;7.002;2022-11-15T05:26:47;12.60;99.90
5960;DHT22;3006;50.956;7.002;2022-11-15T05:29:34;12.60;99.90
5960;DHT22;3006;50.956;7.002;2022-11-15T05:32:21;12.60;99.90
5960;DHT22;3006;50.956;7.002;2022-11-15T05:35:11;12.60;99.90
5960;DHT22;3006;50.956;7.002;2022-11-15T05:38:00;12.60;99.90
5960;DHT22;3006;50.956;7.002;2022-11-15T05:40:47;12.60;99.90
5960;DHT22;3006;50.956;7.002;2022-11-15T05:43:35;12.60;99.90
5960;DHT22;3006;50.956;7.002;2022-11-15T05:46:23;12.60;99.90
5960;DHT22;3006;50.956;7.002;2022-11-15T05:49:13;12.50;99.90
5960;DHT22;3006;50.956;7.002;2022-11-15T05:52:03;12.50;99.90
5960;DHT22;3006;50.956;7.002;2022-11-15T05:54:52;12.50;99.90
5960;DHT22;3006;50.956;7.002;2022-11-15T05:57:40;12.40;99.90
5960;DHT22;3006;50.956;7.002;2022-11-15T06:00:27;12.40;99.90
5960;DHT22;3006;50.956;7.002;2022-11-15T06:03:14;12.30;99.90
5960;DHT22;3006;50.956;7.002;2022-11-15T06:06:01;12.30;99.90
5960;DHT22;3006;50.956;7.002;2022-11-15T06:08:47;12.30;99.90
5960;DHT22;3006;50.956;7.002;2022-11-15T06:11:35;12.30;99.90
5960;DHT22;3006;50.956;7.002;2022-11-15T06:14:22;12.30;99.90
5960;DHT22;3006;50.956;7.002;2022-11-15T06:17:08;12.30;99.90
5960;DHT22;3006;50.956;7.002;2022-11-15T06:19:56;12.20;99.90
5960;DHT22;3006;50.956;7.002;2022-11-15T06:22:42;12.20;99.90
5960;DHT22;3006;50.956;7.002;2022-11-15T06:25:29;12.20;99.90
5960;DHT22;3006;50.956;7.002;2022-11-15T06:28:18;12.20;99.90
5960;DHT22;3006;50.956;7.002;2022-11-15T06:31:05;12.20;99.90
5960;DHT22;3006;50.956;7.002;2022-11-15T06:33:52;12.20;99.90
5960;DHT22;3006;50.956;7.002;2022-11-15T06:36:39;12.10;99.90
5960;DHT22;3006;50.956;7.002;2022-11-15T06:39:25;12.10;99.90
5960;DHT22;3006;50.956;7.002;2022-11-15T06:42:12;12.10;99.90
5960;DHT22;3006;50.956;7.002;2022-11-15T06:45:00;12.10;99.90
5960;DHT22;3006;50.956;7.002;2022-11-15T06:47:47;12.10;99.90
5960;DHT22;3006;50.956;7.002;2022-11-15T06:50:34;12.10;99.90
5960;DHT22;3006;50.956;7.002;2022-11-15T06:53:20;12.00;99.90
5960;DHT22;3006;50.956;7.002;2022-11-15T06:56:07;12.10;99.90
5960;DHT22;3006;50.956;7.002;2022-11-15T06:58:55;12.10;99.90
5960;DHT22;3006;50.956;7.002;2022-11-15T07:01:43;12.10;99.90
5960;DHT22;3006;50.956;7.002;2022-11-15T07:04:30;12.10;99.90
5960;DHT22;3006;50.956;7.002;2022-11-15T07:07:16;12.10;99.90
5960;DHT22;3006;50.956;7.002;2022-11-15T07:10:03;12.10;99.90
5960;DHT22;3006;50.956;7.002;2022-11-15T07:12:51;12.10;99.90
5960;DHT22;3006;50.956;7.002;2022-11-15T07:15:37;12.00;99.90
5960;DHT22;3006;50.956;7.002;2022-11-15T07:18:25;12.00;99.90
5960;DHT22;3006;50.956;7.002;2022-11-15T07:21:12;12.00;99.90
5960;DHT22;3006;50.956;7.002;2022-11-15T07:23:59;12.00;99.90
5960;DHT22;3006;50.956;7.002;2022-11-15T07:26:45;12.00;99.90
5960;DHT22;3006;50.956;7.002;2022-11-15T07:29:31;12.00;99.90
5960;DHT22;3006;50.956;7.002;2022-11-15T07:32:18;12.00;99.90
5960;DHT22;3006;50.956;7.002;2022-11-15T07:35:06;12.00;99.90
5960;DHT22;3006;50.956;7.002;2022-11-15T07:37:54;12.00;99.90
5960;DHT22;3006;50.956;7.002;2022-11-15T07:40:41;12.00;99.90
5960;DHT22;3006;50.956;7.002;2022-11-15T07:43:28;12.00;99.90
5960;DHT22;3006;50.956;7.002;2022-11-15T07:46:15;12.00;99.90
5960;DHT22;3006;50.956;7.002;2022-11-15T07:49:01;12.00;99.90
5960;DHT22;3006;50.956;7.002;2022-11-15T07:51:50;12.00;99.90
5960;DHT22;3006;50.956;7.002;2022-11-15T07:54:37;12.00;99.90
5960;DHT22;3006;50.956;7.002;2022-11-15T07:57:24;12.10;99.90
5960;DHT22;3006;50.956;7.002;2022-11-15T08:00:11;12.10;99.90
5960;DHT22;3006;50.956;7.002;2022-11-15T08:03:02;12.10;99.90
5960;DHT22;3006;50.956;7.002;2022-11-15T08:05:50;12.20;99.90
5960;DHT22;3006;50.956;7.002;2022-11-15T08:08:38;12.20;99.90
5960;DHT22;3006;50.956;7.002;2022-11-15T08:11:25;12.30;99.90
5960;DHT22;3006;50.956;7.002;2022-11-15T08:14:12;12.30;99.90
5960;DHT22;3006;50.956;7.002;2022-11-15T08:16:58;12.20;99.90
5960;DHT22;3006;50.956;7.002;2022-11-15T08:19:45;12.30;99.90
5960;DHT22;3006;50.956;7.002;2022-11-15T08:22:33;12.30;99.90
5960;DHT22;3006;50.956;7.002;2022-11-15T08:25:21;12.40;99.90
5960;DHT22;3006;50.956;7.002;2022-11-15T08:28:10;12.50;99.90
5960;DHT22;3006;50.956;7.002;2022-11-15T08:30:57;12.50;99.90
5960;DHT22;3006;50.956;7.002;2022-11-15T08:33:44;12.50;99.90
5960;DHT22;3006;50.956;7.002;2022-11-15T08:36:31;12.50;99.90
5960;DHT22;3006;50.956;7.002;2022-11-15T08:39:31;12.50;99.90
5960;DHT22;3006;50.956;7.002;2022-11-15T08:42:19;12.50;99.90
5960;DHT22;3006;50.956;7.002;2022-11-15T08:45:07;12.60;99.90
5960;DHT22;3006;50.956;7.002;2022-11-15T08:47:54;12.70;99.90
5960;DHT22;3006;50.956;7.002;2022-11-15T08:50:41;12.70;99.90
5960;DHT22;3006;50.956;7.002;2022-11-15T08:53:29;12.70;99.90
5960;DHT22;3006;50.956;7.002;2022-11-15T08:56:15;12.70;99.90
5960;DHT22;3006;50.956;7.002;2022-11-15T08:59:04;12.80;99.90
5960;DHT22;3006;50.956;7.002;2022-11-15T09:01:50;12.80;99.90
5960;DHT22;3006;50.956;7.002;2022-11-15T09:04:39;12.80;99.90
5960;DHT22;3006;50.956;7.002;2022-11-15T09:07:26;12.80;99.90
5960;DHT22;3006;50.956;7.002;2022-11-15T09:10:15;12.80;99.90
5960;DHT22;3006;50.956;7.002;2022-11-15T09:13:02;12.90;99.90
5960;DHT22;3006;50.956;7.002;2022-11-15T09:15:50;12.90;99.90
5960;DHT22;3006;50.956;7.002;2022-11-15T09:18:36;13.00;99.90
5960;DHT22;3006;50.956;7.002;2022-11-15T09:21:23;13.00;99.90
5960;DHT22;3006;50.956;7.002;2022-11-15T09:24:09;13.00;99.90
5960;DHT22;3006;50.956;7.002;2022-11-15T09:26:56;13.10;99.90
5960;DHT22;3006;50.956;7.002;2022-11-15T09:29:42;13.10;99.90
5960;DHT22;3006;50.956;7.002;2022-11-15T09:32:30;13.20;99.90
5960;DHT22;3006;50.956;7.002;2022-11-15T09:35:23;13.20;99.90
5960;DHT22;3006;50.956;7.002;2022-11-15T09:38:09;13.20;99.90
5960;DHT22;3006;50.956;7.002;2022-11-15T09:41:16;13.20;99.90
5960;DHT22;3006;50.956;7.002;2022-11-15T09:44:26;13.30;99.90
5960;DHT22;3006;50.956;7.002;2022-11-15T09:47:37;13.30;99.90
5960;DHT22;3006;50.956;7.002;2022-11-15T09:50:36;13.30;99.90
5960;DHT22;3006;50.956;7.002;2022-11-15T09:53:11;13.40;99.90
5960;DHT22;3006;50.956;7.002;2022-11-15T09:55:47;13.40;99.90
5960;DHT22;3006;50.956;7.002;2022-11-15T09:58:24;13.40;99.90
5960;DHT22;3006;50.956;7.002;2022-11-15T10:00:53;13.40;99.90
5960;DHT22;3006;50.956;7.002;2022-11-15T10:03:27;13.40;99.90
5960;DHT22;3006;50.956;7.002;2022-11-15T10:05:59;13.40;99.90
5960;DHT22;3006;50.956;7.002;2022-11-15T10:08:40;13.40;99.90
5960;DHT22;3006;50.956;7.002;2022-11-15T10:11:15;13.40;99.90
5960;DHT22;3006;50.956;7.002;2022-11-15T10:14:09;13.50;99.90
5960;DHT22;3006;50.956;7.002;2022-11-15T10:17:15;13.60;99.90
5960;DHT22;3006;50.956;7.002;2022-11-15T10:19:58;13.70;99.90
5960;DHT22;3006;50.956;7.002;2022-11-15T10:22:39;13.70;99.90
5960;DHT22;3006;50.956;7.002;2022-11-15T10:25:26;13.70;99.90
5960;DHT22;3006;50.956;7.002;2022-11-15T10:27:57;13.80;99.90
5960;DHT22;3006;50.956;7.002;2022-11-15T10:30:32;13.80;99.90
5960;DHT22;3006;50.956;7.002;2022-11-15T10:33:18;13.80;99.90
5960;DHT22;3006;50.956;7.002;2022-11-15T10:36:16;13.90;99.90
5960;DHT22;3006;50.956;7.002;2022-11-15T10:38:53;13.90;99.90
5960;DHT22;3006;50.956;7.002;2022-11-15T10:41:22;13.90;99.90
5960;DHT22;3006;50.956;7.002;2022-11-15T10:47:23;14.10;99.90
5960;DHT22;3006;50.956;7.002;2022-11-15T10:49:57;14.10;99.90
5960;DHT22;3006;50.956;7.002;2022-11-15T10:52:27;14.10;99.90
5960;DHT22;3006;50.956;7.002;2022-11-15T10:54:59;14.20;99.90
5960;DHT22;3006;50.956;7.002;2022-11-15T10:57:31;14.20;99.90
5960;DHT22;3006;50.956;7.002;2022-11-15T11:00:03;14.20;99.90
5960;DHT22;3006;50.956;7.002;2022-11-15T11:02:34;14.20;99.90
5960;DHT22;3006;50.956;7.002;2022-11-15T11:05:05;14.10;99.90
5960;DHT22;3006;50.956;7.002;2022-11-15T11:07:35;14.10;99.90
5960;DHT22;3006;50.956;7.002;2022-11-15T11:10:17;14.20;99.90
5960;DHT22;3006;50.956;7.002;2022-11-15T11:13:15;14.20;99.90
5960;DHT22;3006;50.956;7.002;2022-11-15T11:15:56;14.20;99.90
5960;DHT22;3006;50.956;7.002;2022-11-15T11:18:32;14.20;99.90
5960;DHT22;3006;50.956;7.002;2022-11-15T11:21:05;14.20;99.90
5960;DHT22;3006;50.956;7.002;2022-11-15T11:23:51;14.30;99.90
5960;DHT22;3006;50.956;7.002;2022-11-15T11:26:40;14.30;99.90
5960;DHT22;3006;50.956;7.002;2022-11-15T11:29:24;14.30;99.90
5960;DHT22;3006;50.956;7.002;2022-11-15T11:32:00;14.40;99.90
5960;DHT22;3006;50.956;7.002;2022-11-15T11:34:42;14.40;99.90
5960;DHT22;3006;50.956;7.002;2022-11-15T11:37:20;14.40;99.90
5960;DHT22;3006;50.956;7.002;2022-11-15T11:40:07;14.40;99.90
5960;DHT22;3006;50.956;7.002;2022-11-15T11:42:43;14.50;99.90
5960;DHT22;3006;50.956;7.002;2022-11-15T11:45:19;14.50;99.90
5960;DHT22;3006;50.956;7.002;2022-11-15T11:48:00;14.60;99.90
5960;DHT22;3006;50.956;7.002;2022-11-15T11:50:32;14.60;99.90
5960;DHT22;3006;50.956;7.002;2022-11-15T11:53:10;14.70;99.90
5960;DHT22;3006;50.956;7.002;2022-11-15T11:55:43;14.80;99.90
5960;DHT22;3006;50.956;7.002;2022-11-15T11:58:15;14.80;99.90
5960;DHT22;3006;50.956;7.002;2022-11-15T12:00:49;14.80;99.90
5960;DHT22;3006;50.956;7.002;2022-11-15T12:03:24;14.90;99.90
5960;DHT22;3006;50.956;7.002;2022-11-15T12:05:55;15.00;99.90
5960;DHT22;3006;50.956;7.002;2022-11-15T12:08:31;15.10;99.90
5960;DHT22;3006;50.956;7.002;2022-11-15T12:11:08;15.10;99.90
5960;DHT22;3006;50.956;7.002;2022-11-15T12:13:38;15.10;99.90
5960;DHT22;3006;50.956;7.002;2022-11-15T12:16:12;15.10;99.90
5960;DHT22;3006;50.956;7.002;2022-11-15T12:18:46;15.20;99.90
5960;DHT22;3006;50.956;7.002;2022-11-15T12:21:21;15.20;99.90
5960;DHT22;3006;50.956;7.002;2022-11-15T12:23:58;15.10;99.90
5960;DHT22;3006;50.956;7.002;2022-11-15T12:26:38;15.10;99.90
5960;DHT22;3006;50.956;7.002;2022-11-15T12:29:11;15.10;99.90
5960;DHT22;3006;50.956;7.002;2022-11-15T12:31:45;15.10;99.90
5960;DHT22;3006;50.956;7.002;2022-11-15T12:34:39;15.10;99.90
5960;DHT22;3006;50.956;7.002;2022-11-15T12:40:30;15.20;99.90
5960;DHT22;3006;50.956;7.002;2022-11-15T12:43:03;15.20;99.90
5960;DHT22;3006;50.956;7.002;2022-11-15T12:45:33;15.20;99.90
5960;DHT22;3006;50.956;7.002;2022-11-15T12:51:07;15.20;99.90
5960;DHT22;3006;50.956;7.002;2022-11-15T12:53:35;15.20;99.90
5960;DHT22;3006;50.956;7.002;2022-11-15T12:56:24;15.20;99.90
5960;DHT22;3006;50.956;7.002;2022-11-15T12:58:56;15.20;99.90
5960;DHT22;3006;50.956;7.002;2022-11-15T13:01:57;15.30;99.90
5960;DHT22;3006;50.956;7.002;2022-11-15T13:04:27;15.30;99.90
5960;DHT22;3006;50.956;7.002;2022-11-15T13:06:57;15.30;99.90
5960;DHT22;3006;50.956;7.002;2022-11-15T13:09:54;15.20;99.90
5960;DHT22;3006;50.956;7.002;2022-11-15T13:12:48;15.30;99.90
5960;DHT22;3006;50.956;7.002;2022-11-15T13:15:58;15.30;99.90
5960;DHT22;3006;50.956;7.002;2022-11-15T13:18:36;15.30;99.90
5960;DHT22;3006;50.956;7.002;2022-11-15T13:21:18;15.30;99.90
5960;DHT22;3006;50.956;7.002;2022-11-15T13:24:04;15.30;99.90
5960;DHT22;3006;50.956;7.002;2022-11-15T13:26:32;15.20;99.90
5960;DHT22;3006;50.956;7.002;2022-11-15T13:29:01;15.20;99.90
5960;DHT22;3006;50.956;7.002;2022-11-15T13:31:35;15.10;99.90
5960;DHT22;3006;50.956;7.002;2022-11-15T13:34:20;15.10;99.90
5960;DHT22;3006;50.956;7.002;2022-11-15T13:37:13;15.00;99.90
5960;DHT22;3006;50.956;7.002;2022-11-15T13:40:15;15.10;99.90
5960;DHT22;3006;50.956;7.002;2022-11-15T13:42:43;15.00;99.90
5960;DHT22;3006;50.956;7.002;2022-11-15T13:45:15;15.10;99.90
5960;DHT22;3006;50.956;7.002;2022-11-15T13:47:51;15.10;99.90
5960;DHT22;3006;50.956;7.002;2022-11-15T13:50:21;15.10;99.90
5960;DHT22;3006;50.956;7.002;2022-11-15T13:52:50;15.10;99.90
5960;DHT22;3006;50.956;7.002;2022-11-15T13:55:21;15.00;99.90
5960;DHT22;3006;50.956;7.002;2022-11-15T13:57:52;14.90;99.90
5960;DHT22;3006;50.956;7.002;2022-11-15T14:00:36;14.90;99.90
5960;DHT22;3006;50.956;7.002;2022-11-15T14:03:14;15.00;99.90
5960;DHT22;3006;50.956;7.002;2022-11-15T14:06:04;14.90;99.90
5960;DHT22;3006;50.956;7.002;2022-11-15T14:08:34;14.90;99.90
5960;DHT22;3006;50.956;7.002;2022-11-15T14:11:14;14.90;99.90
5960;DHT22;3006;50.956;7.002;2022-11-15T14:14:03;14.90;99.90
5960;DHT22;3006;50.956;7.002;2022-11-15T14:16:34;14.90;99.90
5960;DHT22;3006;50.956;7.002;2022-11-15T14:19:05;14.90;99.90
5960;DHT22;3006;50.956;7.002;2022-11-15T14:21:33;14.90;99.90
5960;DHT22;3006;50.956;7.002;2022-11-15T14:24:14;14.90;99.90
5960;DHT22;3006;50.956;7.002;2022-11-15T14:26:42;14.90;99.90
5960;DHT22;3006;50.956;7.002;2022-11-15T14:29:23;14.90;99.90
5960;DHT22;3006;50.956;7.002;2022-11-15T14:31:52;14.80;99.90
5960;DHT22;3006;50.956;7.002;2022-11-15T14:34:21;14.80;99.90
5960;DHT22;3006;50.956;7.002;2022-11-15T14:36:49;14.80;99.90
5960;DHT22;3006;50.956;7.002;2022-11-15T14:39:18;14.80;99.90
5960;DHT22;3006;50.956;7.002;2022-11-15T14:41:46;14.70;99.90
5960;DHT22;3006;50.956;7.002;2022-11-15T14:44:14;14.70;99.90
5960;DHT22;3006;50.956;7.002;2022-11-15T14:46:45;14.70;99.90
5960;DHT22;3006;50.956;7.002;2022-11-15T14:49:14;14.70;99.90
5960;DHT22;3006;50.956;7.002;2022-11-15T14:51:44;14.60;99.90
5960;DHT22;3006;50.956;7.002;2022-11-15T14:54:12;14.60;99.90
5960;DHT22;3006;50.956;7.002;2022-11-15T14:56:40;14.70;99.90
5960;DHT22;3006;50.956;7.002;2022-11-15T14:59:09;14.70;99.90
5960;DHT22;3006;50.956;7.002;2022-11-15T15:01:37;14.70;99.90
5960;DHT22;3006;50.956;7.002;2022-11-15T15:04:05;14.70;99.90
5960;DHT22;3006;50.956;7.002;2022-11-15T15:06:33;14.70;99.90
5960;DHT22;3006;50.956;7.002;2022-11-15T15:09:03;14.70;99.90
5960;DHT22;3006;50.956;7.002;2022-11-15T15:11:32;14.70;99.90
5960;DHT22;3006;50.956;7.002;2022-11-15T15:14:00;14.70;99.90
5960;DHT22;3006;50.956;7.002;2022-11-15T15:16:28;14.60;99.90
5960;DHT22;3006;50.956;7.002;2022-11-15T15:18:56;14.60;99.90
5960;DHT22;3006;50.956;7.002;2022-11-15T15:21:25;14.50;99.90
5960;DHT22;3006;50.956;7.002;2022-11-15T15:24:04;14.50;99.90
5960;DHT22;3006;50.956;7.002;2022-11-15T15:26:32;14.50;99.90
5960;DHT22;3006;50.956;7.002;2022-11-15T15:29:03;14.50;99.90
5960;DHT22;3006;50.956;7.002;2022-11-15T15:31:31;14.50;99.90
5960;DHT22;3006;50.956;7.002;2022-11-15T15:33:59;14.50;99.90
5960;DHT22;3006;50.956;7.002;2022-11-15T15:36:28;14.50;99.90
5960;DHT22;3006;50.956;7.002;2022-11-15T15:38:56;14.40;99.90
5960;DHT22;3006;50.956;7.002;2022-11-15T15:41:25;14.40;99.90
5960;DHT22;3006;50.956;7.002;2022-11-15T15:43:53;14.40;99.90
5960;DHT22;3006;50.956;7.002;2022-11-15T15:46:21;14.40;99.90
5960;DHT22;3006;50.956;7.002;2022-11-15T15:48:49;14.40;99.90
5960;DHT22;3006;50.956;7.002;2022-11-15T15:51:17;14.40;99.90
5960;DHT22;3006;50.956;7.002;2022-11-15T15:53:47;14.40;99.90
5960;DHT22;3006;50.956;7.002;2022-11-15T15:56:15;14.40;99.90
5960;DHT22;3006;50.956;7.002;2022-11-15T15:58:45;14.40;99.90
5960;DHT22;3006;50.956;7.002;2022-11-15T16:01:13;14.30;99.90
5960;DHT22;3006;50.956;7.002;2022-11-15T16:03:41;14.30;99.90
5960;DHT22;3006;50.956;7.002;2022-11-15T16:06:35;14.30;99.90
5960;DHT22;3006;50.956;7.002;2022-11-15T16:09:12;14.20;99.90
5960;DHT22;3006;50.956;7.002;2022-11-15T16:11:44;14.20;99.90
5960;DHT22;3006;50.956;7.002;2022-11-15T16:14:14;14.20;99.90
5960;DHT22;3006;50.956;7.002;2022-11-15T16:16:42;14.20;99.90
5960;DHT22;3006;50.956;7.002;2022-11-15T16:19:10;14.30;99.90
5960;DHT22;3006;50.956;7.002;2022-11-15T16:21:39;14.30;99.90
5960;DHT22;3006;50.956;7.002;2022-11-15T16:24:08;14.30;99.90
5960;DHT22;3006;50.956;7.002;2022-11-15T16:26:36;14.30;99.90
5960;DHT22;3006;50.956;7.002;2022-11-15T16:29:05;14.30;99.90
5960;DHT22;3006;50.956;7.002;2022-11-15T16:31:37;14.30;99.90
5960;DHT22;3006;50.956;7.002;2022-11-15T16:34:05;14.30;99.90
5960;DHT22;3006;50.956;7.002;2022-11-15T16:36:34;14.40;99.90
5960;DHT22;3006;50.956;7.002;2022-11-15T16:39:03;14.40;99.90
5960;DHT22;3006;50.956;7.002;2022-11-15T16:41:31;14.30;99.90
5960;DHT22;3006;50.956;7.002;2022-11-15T16:43:59;14.30;99.90
5960;DHT22;3006;50.956;7.002;2022-11-15T16:46:28;14.40;99.90
5960;DHT22;3006;50.956;7.002;2022-11-15T16:48:57;14.30;99.90
5960;DHT22;3006;50.956;7.002;2022-11-15T16:51:25;14.30;99.90
5960;DHT22;3006;50.956;7.002;2022-11-15T16:53:55;14.30;99.90
5960;DHT22;3006;50.956;7.002;2022-11-15T16:56:25;14.30;99.90
5960;DHT22;3006;50.956;7.002;2022-11-15T16:58:53;14.30;99.90
5960;DHT22;3006;50.956;7.002;2022-11-15T17:01:25;14.30;99.90
5960;DHT22;3006;50.956;7.002;2022-11-15T17:03:54;14.30;99.90
5960;DHT22;3006;50.956;7.002;2022-11-15T17:06:24;14.30;99.90
5960;DHT22;3006;50.956;7.002;2022-11-15T17:08:53;14.30;99.90
5960;DHT22;3006;50.956;7.002;2022-11-15T17:11:22;14.30;99.90
5960;DHT22;3006;50.956;7.002;2022-11-15T17:13:50;14.30;99.90
5960;DHT22;3006;50.956;7.002;2022-11-15T17:16:18;14.30;99.90
5960;DHT22;3006;50.956;7.002;2022-11-15T17:18:50;14.30;99.90
5960;DHT22;3006;50.956;7.002;2022-11-15T17:21:20;14.30;99.90
5960;DHT22;3006;50.956;7.002;2022-11-15T17:23:50;14.30;99.90
5960;DHT22;3006;50.956;7.002;2022-11-15T17:26:19;14.30;99.90
5960;DHT22;3006;50.956;7.002;2022-11-15T17:28:58;14.30;99.90
5960;DHT22;3006;50.956;7.002;2022-11-15T17:31:27;14.30;99.90
5960;DHT22;3006;50.956;7.002;2022-11-15T17:34:00;14.30;99.90
5960;DHT22;3006;50.956;7.002;2022-11-15T17:36:28;14.30;99.90
5960;DHT22;3006;50.956;7.002;2022-11-15T17:38:57;14.30;99.90
5960;DHT22;3006;50.956;7.002;2022-11-15T17:41:26;14.30;99.90
5960;DHT22;3006;50.956;7.002;2022-11-15T17:43:56;14.30;99.90
5960;DHT22;3006;50.956;7.002;2022-11-15T17:46:25;14.30;99.90
5960;DHT22;3006;50.956;7.002;2022-11-15T17:48:55;14.30;99.90
5960;DHT22;3006;50.956;7.002;2022-11-15T17:51:23;14.30;99.90